sensor_id;sensor_type;location;lat;lon;timestamp;P1;durP1;ratioP1;P2;durP2;ratioP2
66721;SDS011;53633;49.932;10.884;2024-02-28T00:01:19;24.05;;;8.43;;
66721;SDS011;53633;49.932;10.884;2024-02-28T00:03:47;23.58;;;8.15;;
66721;SDS011;53633;49.932;10.884;2024-02-28T00:06:15;24.50;;;8.63;;
66721;SDS011;53633;49.932;10.884;2024-02-28T00:08:44;23.93;;;8.27;;
66721;SDS011;53633;49.932;10.884;2024-02-28T00:11:11;25.05;;;8.32;;
66721;SDS011;53633;49.932;10.884;2024-02-28T00:13:44;25.70;;;9.02;;
66721;SDS011;53633;49.932;10.884;2024-02-28T00:16:11;24.65;;;8.65;;
66721;SDS011;53633;49.932;10.884;2024-02-28T00:18:38;23.48;;;7.85;;
66721;SDS011;53633;49.932;10.884;2024-02-28T00:21:07;28.03;;;9.40;;
66721;SDS011;53633;49.932;10.884;2024-02-28T00:23:34;22.33;;;7.70;;
66721;SDS011;53633;49.932;10.884;2024-02-28T00:26:01;23.20;;;8.18;;
66721;SDS011;53633;49.932;10.884;2024-02-28T00:28:28;19.80;;;8.02;;
66721;SDS011;53633;49.932;10.884;2024-02-28T00:30:55;23.08;;;8.48;;
66721;SDS011;53633;49.932;10.884;2024-02-28T00:33:22;23.10;;;8.53;;
66721;SDS011;53633;49.932;10.884;2024-02-28T00:35:53;20.45;;;7.05;;
66721;SDS011;53633;49.932;10.884;2024-02-28T00:38:21;30.30;;;8.93;;
66721;SDS011;53633;49.932;10.884;2024-02-28T00:40:48;21.33;;;8.40;;
66721;SDS011;53633;49.932;10.884;2024-02-28T00:43:15;22.20;;;8.30;;
66721;SDS011;53633;49.932;10.884;2024-02-28T00:45:42;24.43;;;7.53;;
66721;SDS011;53633;49.932;10.884;2024-02-28T00:48:09;20.60;;;7.47;;
66721;SDS011;53633;49.932;10.884;2024-02-28T00:50:36;24.70;;;8.15;;
66721;SDS011;53633;49.932;10.884;2024-02-28T00:53:03;22.02;;;7.70;;
66721;SDS011;53633;49.932;10.884;2024-02-28T00:55:31;22.40;;;7.55;;
66721;SDS011;53633;49.932;10.884;2024-02-28T00:57:59;25.03;;;8.23;;
66721;SDS011;53633;49.932;10.884;2024-02-28T01:00:27;19.83;;;6.97;;
66721;SDS011;53633;49.932;10.884;2024-02-28T01:02:54;22.63;;;8.20;;
66721;SDS011;53633;49.932;10.884;2024-02-28T01:05:21;22.52;;;7.93;;
66721;SDS011;53633;49.932;10.884;2024-02-28T01:07:48;26.88;;;8.90;;
66721;SDS011;53633;49.932;10.884;2024-02-28T01:10:15;24.87;;;8.10;;
66721;SDS011;53633;49.932;10.884;2024-02-28T01:12:47;25.00;;;8.50;;
66721;SDS011;53633;49.932;10.884;2024-02-28T01:15:15;24.58;;;7.80;;
66721;SDS011;53633;49.932;10.884;2024-02-28T01:17:41;23.95;;;8.15;;
66721;SDS011;53633;49.932;10.884;2024-02-28T01:20:09;25.25;;;8.05;;
66721;SDS011;53633;49.932;10.884;2024-02-28T01:22:36;21.50;;;8.17;;
66721;SDS011;53633;49.932;10.884;2024-02-28T01:25:03;20.92;;;7.53;;
66721;SDS011;53633;49.932;10.884;2024-02-28T01:27:32;23.90;;;8.38;;
66721;SDS011;53633;49.932;10.884;2024-02-28T01:30:00;21.25;;;7.43;;
66721;SDS011;53633;49.932;10.884;2024-02-28T01:32:27;21.05;;;7.10;;
66721;SDS011;53633;49.932;10.884;2024-02-28T01:34:55;18.80;;;7.13;;
66721;SDS011;53633;49.932;10.884;2024-02-28T01:37:22;23.33;;;8.65;;
66721;SDS011;53633;49.932;10.884;2024-02-28T01:39:48;21.50;;;7.82;;
66721;SDS011;53633;49.932;10.884;2024-02-28T01:42:15;22.67;;;8.40;;
66721;SDS011;53633;49.932;10.884;2024-02-28T01:44:43;26.20;;;8.30;;
66721;SDS011;53633;49.932;10.884;2024-02-28T01:47:14;24.10;;;8.70;;
66721;SDS011;53633;49.932;10.884;2024-02-28T01:49:41;20.27;;;7.20;;
66721;SDS011;53633;49.932;10.884;2024-02-28T01:52:10;20.88;;;7.95;;
66721;SDS011;53633;49.932;10.884;2024-02-28T01:54:38;19.95;;;7.32;;
66721;SDS011;53633;49.932;10.884;2024-02-28T01:57:05;24.75;;;8.00;;
66721;SDS011;53633;49.932;10.884;2024-02-28T01:59:33;19.90;;;7.33;;
66721;SDS011;53633;49.932;10.884;2024-02-28T02:02:01;21.20;;;6.90;;
66721;SDS011;53633;49.932;10.884;2024-02-28T02:04:31;22.10;;;8.02;;
66721;SDS011;53633;49.932;10.884;2024-02-28T02:07:00;20.90;;;7.20;;
66721;SDS011;53633;49.932;10.884;2024-02-28T02:09:27;20.30;;;7.03;;
66721;SDS011;53633;49.932;10.884;2024-02-28T02:11:54;20.90;;;7.23;;
66721;SDS011;53633;49.932;10.884;2024-02-28T02:14:21;19.92;;;7.10;;
66721;SDS011;53633;49.932;10.884;2024-02-28T02:16:49;22.35;;;7.40;;
66721;SDS011;53633;49.932;10.884;2024-02-28T02:19:16;20.13;;;7.70;;
66721;SDS011;53633;49.932;10.884;2024-02-28T02:21:52;21.80;;;7.03;;
66721;SDS011;53633;49.932;10.884;2024-02-28T02:24:27;17.73;;;6.40;;
66721;SDS011;53633;49.932;10.884;2024-02-28T02:26:54;21.58;;;6.82;;
66721;SDS011;53633;49.932;10.884;2024-02-28T02:29:24;22.17;;;7.50;;
66721;SDS011;53633;49.932;10.884;2024-02-28T02:31:51;18.63;;;6.18;;
66721;SDS011;53633;49.932;10.884;2024-02-28T02:34:18;16.75;;;6.40;;
66721;SDS011;53633;49.932;10.884;2024-02-28T02:36:45;20.10;;;6.57;;
66721;SDS011;53633;49.932;10.884;2024-02-28T02:39:11;16.80;;;6.82;;
66721;SDS011;53633;49.932;10.884;2024-02-28T02:41:40;18.27;;;5.97;;
66721;SDS011;53633;49.932;10.884;2024-02-28T02:44:07;17.60;;;6.68;;
66721;SDS011;53633;49.932;10.884;2024-02-28T02:46:34;17.70;;;6.75;;
66721;SDS011;53633;49.932;10.884;2024-02-28T02:49:00;18.17;;;6.07;;
66721;SDS011;53633;49.932;10.884;2024-02-28T02:51:28;17.73;;;6.30;;
66721;SDS011;53633;49.932;10.884;2024-02-28T02:53:55;17.98;;;6.22;;
66721;SDS011;53633;49.932;10.884;2024-02-28T02:56:22;16.08;;;6.03;;
66721;SDS011;53633;49.932;10.884;2024-02-28T02:58:51;19.33;;;6.05;;
66721;SDS011;53633;49.932;10.884;2024-02-28T03:01:18;16.07;;;5.30;;
66721;SDS011;53633;49.932;10.884;2024-02-28T03:03:45;15.63;;;5.28;;
66721;SDS011;53633;49.932;10.884;2024-02-28T03:06:14;16.70;;;5.68;;
66721;SDS011;53633;49.932;10.884;2024-02-28T03:08:47;16.25;;;6.03;;
66721;SDS011;53633;49.932;10.884;2024-02-28T03:11:14;15.50;;;6.10;;
66721;SDS011;53633;49.932;10.884;2024-02-28T03:13:42;16.70;;;5.67;;
66721;SDS011;53633;49.932;10.884;2024-02-28T03:16:10;14.73;;;5.55;;
66721;SDS011;53633;49.932;10.884;2024-02-28T03:18:37;14.45;;;5.50;;
66721;SDS011;53633;49.932;10.884;2024-02-28T03:21:04;14.80;;;5.95;;
66721;SDS011;53633;49.932;10.884;2024-02-28T03:23:32;16.48;;;5.72;;
66721;SDS011;53633;49.932;10.884;2024-02-28T03:25:59;16.23;;;5.60;;
66721;SDS011;53633;49.932;10.884;2024-02-28T03:28:27;17.00;;;6.13;;
66721;SDS011;53633;49.932;10.884;2024-02-28T03:30:54;19.17;;;6.38;;
66721;SDS011;53633;49.932;10.884;2024-02-28T03:33:23;14.98;;;5.78;;
66721;SDS011;53633;49.932;10.884;2024-02-28T03:35:49;15.95;;;5.88;;
66721;SDS011;53633;49.932;10.884;2024-02-28T03:38:16;15.80;;;5.80;;
66721;SDS011;53633;49.932;10.884;2024-02-28T03:40:43;15.13;;;5.75;;
66721;SDS011;53633;49.932;10.884;2024-02-28T03:43:10;16.20;;;5.97;;
66721;SDS011;53633;49.932;10.884;2024-02-28T03:45:37;15.20;;;5.25;;
66721;SDS011;53633;49.932;10.884;2024-02-28T03:48:04;17.65;;;5.45;;
66721;SDS011;53633;49.932;10.884;2024-02-28T03:50:33;17.40;;;5.50;;
66721;SDS011;53633;49.932;10.884;2024-02-28T03:53:01;14.23;;;5.00;;
66721;SDS011;53633;49.932;10.884;2024-02-28T03:55:28;16.13;;;5.30;;
66721;SDS011;53633;49.932;10.884;2024-02-28T03:57:57;16.23;;;6.28;;
66721;SDS011;53633;49.932;10.884;2024-02-28T04:00:24;15.65;;;5.78;;
66721;SDS011;53633;49.932;10.884;2024-02-28T04:02:51;15.50;;;6.07;;
66721;SDS011;53633;49.932;10.884;2024-02-28T04:07:49;14.98;;;5.70;;
66721;SDS011;53633;49.932;10.884;2024-02-28T04:10:16;15.60;;;5.40;;
66721;SDS011;53633;49.932;10.884;2024-02-28T04:12:43;13.20;;;5.20;;
66721;SDS011;53633;49.932;10.884;2024-02-28T04:15:10;16.53;;;5.33;;
66721;SDS011;53633;49.932;10.884;2024-02-28T04:17:41;14.40;;;5.03;;
66721;SDS011;53633;49.932;10.884;2024-02-28T04:20:08;15.40;;;5.38;;
66721;SDS011;53633;49.932;10.884;2024-02-28T04:22:37;14.85;;;5.30;;
66721;SDS011;53633;49.932;10.884;2024-02-28T04:25:05;14.10;;;5.20;;
66721;SDS011;53633;49.932;10.884;2024-02-28T04:27:34;13.97;;;5.20;;
66721;SDS011;53633;49.932;10.884;2024-02-28T04:30:02;14.88;;;5.40;;
66721;SDS011;53633;49.932;10.884;2024-02-28T04:32:30;14.73;;;5.63;;
66721;SDS011;53633;49.932;10.884;2024-02-28T04:34:59;13.02;;;4.45;;
66721;SDS011;53633;49.932;10.884;2024-02-28T04:37:26;15.38;;;5.10;;
66721;SDS011;53633;49.932;10.884;2024-02-28T04:39:53;13.13;;;5.23;;
66721;SDS011;53633;49.932;10.884;2024-02-28T04:42:23;14.27;;;5.30;;
66721;SDS011;53633;49.932;10.884;2024-02-28T04:44:49;14.23;;;5.78;;
66721;SDS011;53633;49.932;10.884;2024-02-28T04:47:16;14.98;;;5.20;;
66721;SDS011;53633;49.932;10.884;2024-02-28T04:49:51;14.88;;;5.60;;
66721;SDS011;53633;49.932;10.884;2024-02-28T04:52:18;15.40;;;4.93;;
66721;SDS011;53633;49.932;10.884;2024-02-28T04:54:49;15.25;;;5.35;;
66721;SDS011;53633;49.932;10.884;2024-02-28T04:57:17;13.90;;;5.72;;
66721;SDS011;53633;49.932;10.884;2024-02-28T04:59:52;14.15;;;5.13;;
66721;SDS011;53633;49.932;10.884;2024-02-28T05:02:19;17.58;;;5.60;;
66721;SDS011;53633;49.932;10.884;2024-02-28T05:04:48;14.00;;;5.53;;
66721;SDS011;53633;49.932;10.884;2024-02-28T05:07:15;16.60;;;5.60;;
66721;SDS011;53633;49.932;10.884;2024-02-28T05:09:43;13.73;;;5.40;;
66721;SDS011;53633;49.932;10.884;2024-02-28T05:12:11;13.55;;;5.22;;
66721;SDS011;53633;49.932;10.884;2024-02-28T05:14:37;16.02;;;5.60;;
66721;SDS011;53633;49.932;10.884;2024-02-28T05:17:07;13.47;;;5.17;;
66721;SDS011;53633;49.932;10.884;2024-02-28T05:19:34;16.90;;;5.90;;
66721;SDS011;53633;49.932;10.884;2024-02-28T05:22:00;15.60;;;5.88;;
66721;SDS011;53633;49.932;10.884;2024-02-28T05:24:28;15.70;;;6.05;;
66721;SDS011;53633;49.932;10.884;2024-02-28T05:26:55;14.48;;;5.40;;
66721;SDS011;53633;49.932;10.884;2024-02-28T05:29:22;15.57;;;5.33;;
66721;SDS011;53633;49.932;10.884;2024-02-28T05:31:48;14.50;;;5.15;;
66721;SDS011;53633;49.932;10.884;2024-02-28T05:34:17;18.10;;;5.43;;
66721;SDS011;53633;49.932;10.884;2024-02-28T05:36:43;15.23;;;5.40;;
66721;SDS011;53633;49.932;10.884;2024-02-28T05:39:10;14.52;;;5.18;;
66721;SDS011;53633;49.932;10.884;2024-02-28T05:41:37;18.07;;;6.00;;
66721;SDS011;53633;49.932;10.884;2024-02-28T05:44:04;14.73;;;5.63;;
66721;SDS011;53633;49.932;10.884;2024-02-28T05:46:31;16.35;;;6.20;;
66721;SDS011;53633;49.932;10.884;2024-02-28T05:48:58;14.38;;;6.05;;
66721;SDS011;53633;49.932;10.884;2024-02-28T05:51:26;17.33;;;6.43;;
66721;SDS011;53633;49.932;10.884;2024-02-28T05:53:53;16.87;;;5.87;;
66721;SDS011;53633;49.932;10.884;2024-02-28T05:56:21;17.30;;;6.07;;
66721;SDS011;53633;49.932;10.884;2024-02-28T05:58:48;15.95;;;6.30;;
66721;SDS011;53633;49.932;10.884;2024-02-28T06:01:16;15.15;;;5.57;;
66721;SDS011;53633;49.932;10.884;2024-02-28T06:03:44;16.90;;;5.70;;
66721;SDS011;53633;49.932;10.884;2024-02-28T06:06:12;17.10;;;5.80;;
66721;SDS011;53633;49.932;10.884;2024-02-28T06:08:40;15.85;;;6.93;;
66721;SDS011;53633;49.932;10.884;2024-02-28T06:11:09;14.48;;;5.80;;
66721;SDS011;53633;49.932;10.884;2024-02-28T06:13:36;16.40;;;5.82;;
66721;SDS011;53633;49.932;10.884;2024-02-28T06:16:06;16.08;;;6.07;;
66721;SDS011;53633;49.932;10.884;2024-02-28T06:18:33;17.70;;;6.17;;
66721;SDS011;53633;49.932;10.884;2024-02-28T06:21:00;18.33;;;6.22;;
66721;SDS011;53633;49.932;10.884;2024-02-28T06:23:28;14.38;;;5.88;;
66721;SDS011;53633;49.932;10.884;2024-02-28T06:25:57;20.85;;;7.13;;
66721;SDS011;53633;49.932;10.884;2024-02-28T06:28:24;18.25;;;7.63;;
66721;SDS011;53633;49.932;10.884;2024-02-28T06:30:53;19.23;;;7.57;;
66721;SDS011;53633;49.932;10.884;2024-02-28T06:33:21;20.88;;;7.00;;
66721;SDS011;53633;49.932;10.884;2024-02-28T06:35:49;19.35;;;7.30;;
66721;SDS011;53633;49.932;10.884;2024-02-28T06:38:18;23.60;;;7.05;;
66721;SDS011;53633;49.932;10.884;2024-02-28T06:40:45;16.50;;;6.82;;
66721;SDS011;53633;49.932;10.884;2024-02-28T06:43:14;18.67;;;6.50;;
66721;SDS011;53633;49.932;10.884;2024-02-28T06:45:47;21.17;;;7.57;;
66721;SDS011;53633;49.932;10.884;2024-02-28T06:48:16;19.67;;;7.03;;
66721;SDS011;53633;49.932;10.884;2024-02-28T06:50:50;19.85;;;6.28;;
66721;SDS011;53633;49.932;10.884;2024-02-28T06:56:21;16.60;;;6.67;;
66721;SDS011;53633;49.932;10.884;2024-02-28T06:58:50;17.42;;;7.32;;
66721;SDS011;53633;49.932;10.884;2024-02-28T07:01:27;18.38;;;6.72;;
66721;SDS011;53633;49.932;10.884;2024-02-28T07:03:54;19.20;;;6.82;;
66721;SDS011;53633;49.932;10.884;2024-02-28T07:06:25;17.48;;;6.63;;
66721;SDS011;53633;49.932;10.884;2024-02-28T07:08:54;17.87;;;6.77;;
66721;SDS011;53633;49.932;10.884;2024-02-28T07:11:24;18.77;;;7.22;;
66721;SDS011;53633;49.932;10.884;2024-02-28T07:14:02;16.80;;;6.95;;
66721;SDS011;53633;49.932;10.884;2024-02-28T07:16:36;18.58;;;7.10;;
66721;SDS011;53633;49.932;10.884;2024-02-28T07:19:06;16.30;;;6.15;;
66721;SDS011;53633;49.932;10.884;2024-02-28T07:24:07;16.17;;;6.30;;
66721;SDS011;53633;49.932;10.884;2024-02-28T07:26:47;16.23;;;6.80;;
66721;SDS011;53633;49.932;10.884;2024-02-28T07:29:15;16.33;;;6.45;;
66721;SDS011;53633;49.932;10.884;2024-02-28T07:31:45;16.98;;;7.47;;
66721;SDS011;53633;49.932;10.884;2024-02-28T07:36:43;14.35;;;5.88;;
66721;SDS011;53633;49.932;10.884;2024-02-28T07:39:13;15.18;;;5.90;;
66721;SDS011;53633;49.932;10.884;2024-02-28T07:41:41;18.45;;;6.03;;
66721;SDS011;53633;49.932;10.884;2024-02-28T07:44:08;16.25;;;6.05;;
66721;SDS011;53633;49.932;10.884;2024-02-28T07:46:38;17.07;;;5.97;;
66721;SDS011;53633;49.932;10.884;2024-02-28T07:49:10;15.60;;;5.82;;
66721;SDS011;53633;49.932;10.884;2024-02-28T07:51:37;14.30;;;6.10;;
66721;SDS011;53633;49.932;10.884;2024-02-28T07:54:07;15.80;;;5.80;;
66721;SDS011;53633;49.932;10.884;2024-02-28T07:56:35;15.15;;;5.65;;
66721;SDS011;53633;49.932;10.884;2024-02-28T07:59:02;15.33;;;5.90;;
66721;SDS011;53633;49.932;10.884;2024-02-28T08:01:29;16.65;;;6.03;;
66721;SDS011;53633;49.932;10.884;2024-02-28T08:03:57;16.92;;;6.13;;
66721;SDS011;53633;49.932;10.884;2024-02-28T08:06:28;17.65;;;6.70;;
66721;SDS011;53633;49.932;10.884;2024-02-28T08:08:56;17.10;;;6.30;;
66721;SDS011;53633;49.932;10.884;2024-02-28T08:11:24;16.70;;;5.83;;
66721;SDS011;53633;49.932;10.884;2024-02-28T08:13:55;15.02;;;5.47;;
66721;SDS011;53633;49.932;10.884;2024-02-28T08:16:22;14.93;;;5.72;;
66721;SDS011;53633;49.932;10.884;2024-02-28T08:18:50;17.33;;;6.10;;
66721;SDS011;53633;49.932;10.884;2024-02-28T08:21:18;14.73;;;5.32;;
66721;SDS011;53633;49.932;10.884;2024-02-28T08:23:45;14.70;;;5.47;;
66721;SDS011;53633;49.932;10.884;2024-02-28T08:26:14;13.57;;;5.20;;
66721;SDS011;53633;49.932;10.884;2024-02-28T08:28:47;14.18;;;5.00;;
66721;SDS011;53633;49.932;10.884;2024-02-28T08:31:14;13.15;;;5.25;;
66721;SDS011;53633;49.932;10.884;2024-02-28T08:33:42;12.05;;;4.78;;
66721;SDS011;53633;49.932;10.884;2024-02-28T08:36:09;14.10;;;4.83;;
66721;SDS011;53633;49.932;10.884;2024-02-28T08:38:37;11.63;;;4.68;;
66721;SDS011;53633;49.932;10.884;2024-02-28T08:41:04;14.13;;;5.43;;
66721;SDS011;53633;49.932;10.884;2024-02-28T08:43:31;12.95;;;4.15;;
66721;SDS011;53633;49.932;10.884;2024-02-28T08:46:01;14.10;;;4.82;;
66721;SDS011;53633;49.932;10.884;2024-02-28T08:48:30;16.23;;;5.13;;
66721;SDS011;53633;49.932;10.884;2024-02-28T08:50:57;14.15;;;4.85;;
66721;SDS011;53633;49.932;10.884;2024-02-28T08:53:24;11.88;;;4.63;;
66721;SDS011;53633;49.932;10.884;2024-02-28T08:55:52;12.30;;;4.72;;
66721;SDS011;53633;49.932;10.884;2024-02-28T08:58:19;13.07;;;5.22;;
66721;SDS011;53633;49.932;10.884;2024-02-28T09:00:46;12.40;;;4.80;;
66721;SDS011;53633;49.932;10.884;2024-02-28T09:03:17;11.63;;;4.53;;
66721;SDS011;53633;49.932;10.884;2024-02-28T09:05:44;11.38;;;4.45;;
66721;SDS011;53633;49.932;10.884;2024-02-28T09:08:11;12.25;;;4.50;;
66721;SDS011;53633;49.932;10.884;2024-02-28T09:10:40;12.68;;;4.85;;
66721;SDS011;53633;49.932;10.884;2024-02-28T09:13:08;14.17;;;4.30;;
66721;SDS011;53633;49.932;10.884;2024-02-28T09:15:36;14.23;;;5.40;;
66721;SDS011;53633;49.932;10.884;2024-02-28T09:18:03;12.48;;;5.22;;
66721;SDS011;53633;49.932;10.884;2024-02-28T09:20:30;11.93;;;4.82;;
66721;SDS011;53633;49.932;10.884;2024-02-28T09:22:58;12.55;;;4.53;;
66721;SDS011;53633;49.932;10.884;2024-02-28T09:25:30;12.13;;;5.33;;
66721;SDS011;53633;49.932;10.884;2024-02-28T09:27:57;12.15;;;4.35;;
66721;SDS011;53633;49.932;10.884;2024-02-28T09:30:27;10.75;;;4.95;;
66721;SDS011;53633;49.932;10.884;2024-02-28T09:33:11;10.30;;;4.50;;
66721;SDS011;53633;49.932;10.884;2024-02-28T09:35:45;11.85;;;4.68;;
66721;SDS011;53633;49.932;10.884;2024-02-28T09:38:12;12.90;;;4.73;;
66721;SDS011;53633;49.932;10.884;2024-02-28T09:40:39;12.55;;;5.28;;
66721;SDS011;53633;49.932;10.884;2024-02-28T09:43:06;12.95;;;4.70;;
66721;SDS011;53633;49.932;10.884;2024-02-28T09:45:39;10.10;;;4.05;;
66721;SDS011;53633;49.932;10.884;2024-02-28T09:48:12;11.63;;;4.72;;
66721;SDS011;53633;49.932;10.884;2024-02-28T09:50:41;11.20;;;4.67;;
66721;SDS011;53633;49.932;10.884;2024-02-28T09:53:09;10.52;;;4.50;;
66721;SDS011;53633;49.932;10.884;2024-02-28T09:55:39;11.98;;;4.80;;
66721;SDS011;53633;49.932;10.884;2024-02-28T09:58:07;11.57;;;4.25;;
66721;SDS011;53633;49.932;10.884;2024-02-28T10:00:35;11.50;;;4.35;;
66721;SDS011;53633;49.932;10.884;2024-02-28T10:03:05;11.77;;;5.20;;
66721;SDS011;53633;49.932;10.884;2024-02-28T10:05:33;11.52;;;4.47;;
66721;SDS011;53633;49.932;10.884;2024-02-28T10:08:01;11.52;;;4.82;;
66721;SDS011;53633;49.932;10.884;2024-02-28T10:10:29;12.45;;;4.88;;
66721;SDS011;53633;49.932;10.884;2024-02-28T10:12:56;11.27;;;4.40;;
66721;SDS011;53633;49.932;10.884;2024-02-28T10:15:30;11.97;;;4.80;;
66721;SDS011;53633;49.932;10.884;2024-02-28T10:17:57;11.52;;;4.45;;
66721;SDS011;53633;49.932;10.884;2024-02-28T10:20:26;12.50;;;5.20;;
66721;SDS011;53633;49.932;10.884;2024-02-28T10:22:52;11.50;;;4.60;;
66721;SDS011;53633;49.932;10.884;2024-02-28T10:25:20;13.60;;;5.30;;
66721;SDS011;53633;49.932;10.884;2024-02-28T10:27:47;12.10;;;4.80;;
66721;SDS011;53633;49.932;10.884;2024-02-28T10:30:19;12.25;;;5.43;;
66721;SDS011;53633;49.932;10.884;2024-02-28T10:32:50;13.48;;;4.97;;
66721;SDS011;53633;49.932;10.884;2024-02-28T10:35:18;12.98;;;5.35;;
66721;SDS011;53633;49.932;10.884;2024-02-28T10:37:53;15.85;;;5.38;;
66721;SDS011;53633;49.932;10.884;2024-02-28T10:40:25;13.13;;;5.30;;
66721;SDS011;53633;49.932;10.884;2024-02-28T10:42:53;12.77;;;5.35;;
66721;SDS011;53633;49.932;10.884;2024-02-28T10:45:22;14.50;;;5.72;;
66721;SDS011;53633;49.932;10.884;2024-02-28T10:48:11;12.63;;;4.78;;
66721;SDS011;53633;49.932;10.884;2024-02-28T10:50:40;13.75;;;5.57;;
66721;SDS011;53633;49.932;10.884;2024-02-28T10:53:11;13.53;;;5.57;;
66721;SDS011;53633;49.932;10.884;2024-02-28T10:55:40;11.70;;;5.05;;
66721;SDS011;53633;49.932;10.884;2024-02-28T10:58:10;13.18;;;5.07;;
66721;SDS011;53633;49.932;10.884;2024-02-28T11:03:11;11.68;;;5.07;;
66721;SDS011;53633;49.932;10.884;2024-02-28T11:05:42;14.30;;;5.43;;
66721;SDS011;53633;49.932;10.884;2024-02-28T11:08:21;12.93;;;5.22;;
66721;SDS011;53633;49.932;10.884;2024-02-28T11:10:54;13.73;;;5.40;;
66721;SDS011;53633;49.932;10.884;2024-02-28T11:13:22;13.80;;;5.40;;
66721;SDS011;53633;49.932;10.884;2024-02-28T11:15:49;13.93;;;5.20;;
66721;SDS011;53633;49.932;10.884;2024-02-28T11:18:17;13.50;;;5.07;;
66721;SDS011;53633;49.932;10.884;2024-02-28T11:20:44;14.00;;;4.93;;
66721;SDS011;53633;49.932;10.884;2024-02-28T11:23:11;13.23;;;5.07;;
66721;SDS011;53633;49.932;10.884;2024-02-28T11:25:43;13.73;;;5.13;;
66721;SDS011;53633;49.932;10.884;2024-02-28T11:28:10;12.02;;;4.78;;
66721;SDS011;53633;49.932;10.884;2024-02-28T11:30:37;12.43;;;4.60;;
66721;SDS011;53633;49.932;10.884;2024-02-28T11:33:04;12.50;;;5.15;;
66721;SDS011;53633;49.932;10.884;2024-02-28T11:35:32;12.38;;;4.85;;
66721;SDS011;53633;49.932;10.884;2024-02-28T11:38:01;13.02;;;5.05;;
66721;SDS011;53633;49.932;10.884;2024-02-28T11:40:28;12.38;;;4.65;;
66721;SDS011;53633;49.932;10.884;2024-02-28T11:43:01;10.47;;;4.43;;
66721;SDS011;53633;49.932;10.884;2024-02-28T11:45:38;11.70;;;4.25;;
66721;SDS011;53633;49.932;10.884;2024-02-28T11:48:06;11.25;;;4.10;;
66721;SDS011;53633;49.932;10.884;2024-02-28T11:50:33;9.90;;;3.78;;
66721;SDS011;53633;49.932;10.884;2024-02-28T11:53:00;12.10;;;4.45;;
66721;SDS011;53633;49.932;10.884;2024-02-28T11:55:28;11.43;;;3.87;;
66721;SDS011;53633;49.932;10.884;2024-02-28T11:58:02;11.65;;;4.15;;
66721;SDS011;53633;49.932;10.884;2024-02-28T12:00:33;10.27;;;3.88;;
66721;SDS011;53633;49.932;10.884;2024-02-28T12:03:04;10.23;;;3.38;;
66721;SDS011;53633;49.932;10.884;2024-02-28T12:05:32;9.52;;;3.13;;
66721;SDS011;53633;49.932;10.884;2024-02-28T12:08:01;7.53;;;2.73;;
66721;SDS011;53633;49.932;10.884;2024-02-28T12:10:31;8.00;;;2.83;;
66721;SDS011;53633;49.932;10.884;2024-02-28T12:13:00;8.88;;;3.75;;
66721;SDS011;53633;49.932;10.884;2024-02-28T12:15:29;8.65;;;3.00;;
66721;SDS011;53633;49.932;10.884;2024-02-28T12:17:57;9.50;;;2.92;;
66721;SDS011;53633;49.932;10.884;2024-02-28T12:20:27;8.30;;;2.70;;
66721;SDS011;53633;49.932;10.884;2024-02-28T12:22:54;7.43;;;2.67;;
66721;SDS011;53633;49.932;10.884;2024-02-28T12:25:22;8.63;;;2.88;;
66721;SDS011;53633;49.932;10.884;2024-02-28T12:27:49;8.52;;;2.95;;
66721;SDS011;53633;49.932;10.884;2024-02-28T12:30:17;7.97;;;2.70;;
66721;SDS011;53633;49.932;10.884;2024-02-28T12:32:46;8.63;;;3.00;;
66721;SDS011;53633;49.932;10.884;2024-02-28T12:35:18;8.23;;;3.05;;
66721;SDS011;53633;49.932;10.884;2024-02-28T12:37:44;6.93;;;2.60;;
66721;SDS011;53633;49.932;10.884;2024-02-28T12:40:11;6.70;;;2.28;;
66721;SDS011;53633;49.932;10.884;2024-02-28T12:42:43;8.02;;;2.30;;
66721;SDS011;53633;49.932;10.884;2024-02-28T12:45:11;6.90;;;2.07;;
66721;SDS011;53633;49.932;10.884;2024-02-28T12:47:40;7.63;;;2.40;;
66721;SDS011;53633;49.932;10.884;2024-02-28T12:50:10;7.35;;;2.50;;
66721;SDS011;53633;49.932;10.884;2024-02-28T12:55:13;6.72;;;2.13;;
66721;SDS011;53633;49.932;10.884;2024-02-28T13:00:14;7.13;;;2.03;;
66721;SDS011;53633;49.932;10.884;2024-02-28T13:02:43;7.53;;;2.35;;
66721;SDS011;53633;49.932;10.884;2024-02-28T13:05:13;7.47;;;2.25;;
66721;SDS011;53633;49.932;10.884;2024-02-28T13:07:40;6.05;;;2.08;;
66721;SDS011;53633;49.932;10.884;2024-02-28T13:10:08;8.03;;;2.13;;
66721;SDS011;53633;49.932;10.884;2024-02-28T13:12:37;6.05;;;1.83;;
66721;SDS011;53633;49.932;10.884;2024-02-28T13:15:05;5.32;;;1.98;;
66721;SDS011;53633;49.932;10.884;2024-02-28T13:17:32;8.27;;;2.20;;
66721;SDS011;53633;49.932;10.884;2024-02-28T13:20:00;6.68;;;1.88;;
66721;SDS011;53633;49.932;10.884;2024-02-28T13:22:28;6.77;;;1.90;;
66721;SDS011;53633;49.932;10.884;2024-02-28T13:24:55;8.05;;;2.45;;
66721;SDS011;53633;49.932;10.884;2024-02-28T13:27:22;7.30;;;2.47;;
66721;SDS011;53633;49.932;10.884;2024-02-28T13:29:56;6.88;;;2.30;;
66721;SDS011;53633;49.932;10.884;2024-02-28T13:32:23;9.88;;;3.42;;
66721;SDS011;53633;49.932;10.884;2024-02-28T13:34:52;8.93;;;3.10;;
66721;SDS011;53633;49.932;10.884;2024-02-28T13:37:22;9.23;;;3.20;;
66721;SDS011;53633;49.932;10.884;2024-02-28T13:39:49;9.07;;;3.28;;
66721;SDS011;53633;49.932;10.884;2024-02-28T13:42:18;7.20;;;2.60;;
66721;SDS011;53633;49.932;10.884;2024-02-28T13:44:46;8.50;;;3.00;;
66721;SDS011;53633;49.932;10.884;2024-02-28T13:47:13;9.57;;;3.30;;
66721;SDS011;53633;49.932;10.884;2024-02-28T13:49:41;7.25;;;2.63;;
66721;SDS011;53633;49.932;10.884;2024-02-28T13:52:08;7.60;;;2.92;;
66721;SDS011;53633;49.932;10.884;2024-02-28T13:54:37;8.10;;;3.13;;
66721;SDS011;53633;49.932;10.884;2024-02-28T13:57:04;8.68;;;2.85;;
66721;SDS011;53633;49.932;10.884;2024-02-28T13:59:37;9.17;;;3.23;;
66721;SDS011;53633;49.932;10.884;2024-02-28T14:02:07;7.82;;;2.50;;
66721;SDS011;53633;49.932;10.884;2024-02-28T14:04:35;6.75;;;2.40;;
66721;SDS011;53633;49.932;10.884;2024-02-28T14:07:02;7.15;;;2.53;;
66721;SDS011;53633;49.932;10.884;2024-02-28T14:09:29;7.22;;;2.40;;
66721;SDS011;53633;49.932;10.884;2024-02-28T14:11:58;6.83;;;2.33;;
66721;SDS011;53633;49.932;10.884;2024-02-28T14:14:27;7.30;;;2.30;;
66721;SDS011;53633;49.932;10.884;2024-02-28T14:16:54;7.60;;;2.60;;
66721;SDS011;53633;49.932;10.884;2024-02-28T14:19:22;5.20;;;1.75;;
66721;SDS011;53633;49.932;10.884;2024-02-28T14:21:49;8.68;;;1.90;;
66721;SDS011;53633;49.932;10.884;2024-02-28T14:24:16;11.73;;;2.60;;
66721;SDS011;53633;49.932;10.884;2024-02-28T14:26:45;7.90;;;2.55;;
66721;SDS011;53633;49.932;10.884;2024-02-28T14:29:13;7.10;;;2.72;;
66721;SDS011;53633;49.932;10.884;2024-02-28T14:31:42;7.13;;;2.83;;
66721;SDS011;53633;49.932;10.884;2024-02-28T14:34:09;8.32;;;2.80;;
66721;SDS011;53633;49.932;10.884;2024-02-28T14:36:41;7.33;;;2.50;;
66721;SDS011;53633;49.932;10.884;2024-02-28T14:39:14;8.75;;;2.40;;
66721;SDS011;53633;49.932;10.884;2024-02-28T14:41:44;6.30;;;2.50;;
66721;SDS011;53633;49.932;10.884;2024-02-28T14:44:11;7.38;;;2.65;;
66721;SDS011;53633;49.932;10.884;2024-02-28T14:46:41;7.18;;;2.30;;
66721;SDS011;53633;49.932;10.884;2024-02-28T14:49:08;6.57;;;2.30;;